EDT,Max TemperatureF,Mean TemperatureF,Min TemperatureF,Max Dew PointF,MeanDew PointF,Min DewpointF,Max Humidity, Mean Humidity, Min Humidity, Max Sea Level PressureIn, Mean Sea Level PressureIn, Min Sea Level PressureIn, Max VisibilityMiles, Mean VisibilityMiles, Min VisibilityMiles, Max Wind SpeedMPH, Mean Wind SpeedMPH, Max Gust SpeedMPH,PrecipitationIn, CloudCover, Events, WindDirDegrees
2012-4-1,88,78,67,68,64,59,90,67,39,29.97,29.93,29.89,10,10,10,17,6,21,0.00,0,,309
2012-4-2,88,76,63,68,63,55,93,72,35,29.95,29.91,29.88,10,8,1,17,5,22,0.00,0,,313
2012-4-3,92,78,64,66,61,55,87,61,32,30.00,29.95,29.91,10,10,6,15,4,18,0.00,0,,217
2012-4-4,90,79,67,71,65,60,93,66,40,29.99,29.91,29.84,10,10,10,28,6,38,T,0,,206
2012-4-5,88,79,69,71,67,64,90,72,48,29.92,29.83,29.78,10,10,6,20,9,24,0.01,2,Rain,260
2012-4-6,87,78,68,72,64,53,82,60,42,29.95,29.83,29.75,10,10,10,23,14,30,T,3,,287
2012-4-7,87,75,63,60,57,53,78,57,34,30.13,30.04,29.96,10,10,10,18,11,23,0.00,2,,64
2012-4-8,87,74,61,57,52,47,72,51,25,30.16,30.12,30.05,10,10,10,16,8,23,0.00,1,,61
2012-4-9,87,74,60,60,55,48,84,56,27,30.11,30.06,29.99,10,10,10,15,5,24,0.00,2,,89
2012-4-10,87,76,64,64,60,55,84,61,35,30.11,30.04,29.99,10,10,10,16,5,20,0.00,2,,286
2012-4-11,86,76,65,62,59,55,81,59,37,30.09,30.04,30.00,10,10,10,18,6,23,0.00,0,,306
2012-4-12,89,77,64,61,57,50,87,53,31,30.08,30.03,29.99,10,10,9,17,7,24,0.00,0,,342
2012-4-13,90,78,65,65,61,53,93,63,32,30.12,30.06,30.01,10,10,7,16,7,20,0.00,1,,29
2012-4-14,83,76,68,66,63,60,90,69,51,30.21,30.16,30.09,10,10,8,24,11,33,T,5,,101
2012-4-15,86,76,65,60,58,55,84,57,37,30.21,30.17,30.12,10,10,10,18,9,23,0.00,3,,118
2012-4-16,89,76,62,60,57,52,84,56,29,30.19,30.15,30.11,10,10,10,21,9,26,0.00,1,,119
2012-4-17,90,77,64,64,58,51,84,56,29,30.17,30.11,30.04,10,10,10,16,7,22,0.00,2,,134
2012-4-18,87,76,64,67,62,59,87,63,42,30.10,30.03,29.96,10,10,10,17,6,31,0.00,1,,189
2012-4-19,89,80,70,70,66,61,90,66,40,30.01,29.95,29.89,10,10,10,17,7,24,0.00,3,,187
2012-4-20,89,80,71,70,67,64,93,70,46,29.94,29.89,29.83,10,10,9,16,7,22,0.02,3,Rain,168
2012-4-21,78,74,69,67,65,62,90,79,64,29.89,29.78,29.64,10,9,2,16,7,23,0.38,4,Rain-Thunderstorm,146
2012-4-22,83,75,66,68,63,56,93,75,47,29.79,29.63,29.58,10,8,1,28,13,39,0.96,5,Rain-Thunderstorm,269
2012-4-23,80,72,64,56,50,45,61,46,35,29.95,29.85,29.78,10,10,10,24,13,32,0.00,2,,320
2012-4-24,77,68,58,50,42,31,72,42,25,30.08,30.01,29.93,10,10,10,21,10,26,0.00,0,,337
2012-4-25,82,68,53,53,46,37,77,48,23,30.14,30.10,30.05,10,10,10,15,4,18,0.00,0,,284
2012-4-26,87,72,57,61,55,52,84,58,32,30.16,30.11,30.06,10,10,10,16,4,20,0.00,0,,236
2012-4-27,89,75,61,65,60,57,90,61,36,30.13,30.09,30.02,10,10,10,14,4,18,0.00,2,,103
2012-4-28,91,80,68,72,68,64,90,75,44,30.09,30.05,30.01,10,8,1,21,5,26,0.27,3,Rain,116
2012-4-29,81,76,71,70,68,65,84,76,67,30.09,30.05,30.00,10,10,10,16,9,21,T,3,Rain,80
2012-4-30,87,78,69,72,66,63,84,70,48,30.06,30.03,29.99,10,10,4,26,13,36,0.01,5,Rain,80